Canelo Arrow — C6OM8 — position and weather

sailwx.info

Track history (hours):
 
Tides and Currents Weather Stations Pressure Air Temp Water Temp Dewpoint Dewpoint Depression Visibility Wind Speed Wind Dir Waves Ship Positions

Canelo Arrow

Last reported at 2017-Nov-14 12:00 UTC. Time now 2017-Nov-21 21:30 UTC.
Position N 05°54' W 027°00'.

Length 189.8 m; beam 31 m; draft 12.8 m.

Type: Cargo ship. MMSI: 309761000.

Wind from 170 at 6 knots

Barometer 1010.8 mb
Air temperature 28.0 ° C
Visibility: greater than 10.8 NM
Dewpoint 23.7 ° C

Date/timePositionNaut miles runAvg speedWind from/ knotsBaromVisibWave heightAir tempDewpointWater temp
2017-Nov-14 12:00N 05°54' W 027°00'   170 / 61010.810.8 28.023.7
2017-Nov-10 08:00N 23°18' W 017°36'24211.5 040 / 121015.5 5.4 22.618.8
2017-Nov-09 11:00N 26°54' W 015°36'4214.9 060 / 61017.0 5.4 25.617.7
2017-Nov-09 08:08N 27°33' W 015°17'212.4
2017-Nov-09 08:00N 27°34' W 015°16'612.0
2017-Nov-09 07:30N 27°40' W 015°13'611.8
2017-Nov-09 07:00N 27°45' W 015°10'612.2
2017-Nov-09 06:30N 27°51' W 015°08'612.2
2017-Nov-09 06:00N 27°57' W 015°06'611.9
2017-Nov-09 05:30N 28°02' W 015°03'611.9
2017-Nov-09 05:00N 28°08' W 015°00'612.2
2017-Nov-09 04:30N 28°13' W 014°58'611.9
2017-Nov-09 04:00N 28°19' W 014°56'611.6
2017-Nov-09 03:30N 28°25' W 014°55'611.7
2017-Nov-09 03:00N 28°30' W 014°53'611.9
2017-Nov-09 02:30N 28°36' W 014°51'612.0
2017-Nov-09 01:59N 28°42' W 014°50'612.2
2017-Nov-09 01:29N 28°48' W 014°48'712.2
2017-Nov-09 00:55N 28°55' W 014°46'7012.2
2017-Nov-08 19:12N 30°03' W 014°28'211.8
2017-Nov-08 18:59N 30°05' W 014°27'611.6
2017-Nov-08 18:30N 30°11' W 014°25'611.8
2017-Nov-08 18:00N 30°16' W 014°24'611.6
2017-Nov-08 17:30N 30°22' W 014°22'611.4
2017-Nov-08 17:00N 30°27' W 014°21'611.1
2017-Nov-08 16:30N 30°33' W 014°19'711.0
2017-Nov-08 15:55N 30°39' W 014°17'511.4
2017-Nov-08 15:30N 30°44' W 014°16'611.8
2017-Nov-08 14:58N 30°50' W 014°14'5211.8
2017-Nov-08 10:33N 31°40' W 014°00'111.8
2017-Nov-08 10:28N 31°41' W 013°60'31011.7
2017-Nov-07 08:00N 36°42' W 012°30'26612.7 050 / 211024.4 5.4 19.513.8
2017-Nov-06 11:00N 41°00' W 011°06'   1027.9 5.4 16.5 9.0
Track history (hours):
 
Tides and Currents Weather Stations Pressure Air Temp Water Temp Dewpoint Dewpoint Depression Visibility Wind Speed Wind Dir Waves Ship Positions

Canelo Arrow

Last reported at 2017-Nov-14 12:00 UTC. Time now 2017-Nov-21 21:30 UTC.
Position N 05°54' W 027°00'.

Length 189.8 m; beam 31 m; draft 12.8 m.

Type: Cargo ship. MMSI: 309761000.

Wind from 170 at 6 knots

Barometer 1010.8 mb
Air temperature 28.0 ° C
Visibility: greater than 10.8 NM
Dewpoint 23.7 ° C

Date/timePositionNaut miles runAvg speedWind from/ knotsBaromVisibWave heightAir tempDewpointWater temp
2017-Nov-14 12:00N 05°54' W 027°00'   170 / 61010.810.8 28.023.7
2017-Nov-10 08:00N 23°18' W 017°36'24211.5 040 / 121015.5 5.4 22.618.8
2017-Nov-09 11:00N 26°54' W 015°36'4214.9 060 / 61017.0 5.4 25.617.7
2017-Nov-09 08:08N 27°33' W 015°17'212.4
2017-Nov-09 08:00N 27°34' W 015°16'612.0
2017-Nov-09 07:30N 27°40' W 015°13'611.8
2017-Nov-09 07:00N 27°45' W 015°10'612.2
2017-Nov-09 06:30N 27°51' W 015°08'612.2
2017-Nov-09 06:00N 27°57' W 015°06'611.9
2017-Nov-09 05:30N 28°02' W 015°03'611.9
2017-Nov-09 05:00N 28°08' W 015°00'612.2
2017-Nov-09 04:30N 28°13' W 014°58'611.9
2017-Nov-09 04:00N 28°19' W 014°56'611.6
2017-Nov-09 03:30N 28°25' W 014°55'611.7
2017-Nov-09 03:00N 28°30' W 014°53'611.9
2017-Nov-09 02:30N 28°36' W 014°51'612.0
2017-Nov-09 01:59N 28°42' W 014°50'612.2
2017-Nov-09 01:29N 28°48' W 014°48'712.2
2017-Nov-09 00:55N 28°55' W 014°46'7012.2
2017-Nov-08 19:12N 30°03' W 014°28'211.8
2017-Nov-08 18:59N 30°05' W 014°27'611.6
2017-Nov-08 18:30N 30°11' W 014°25'611.8
2017-Nov-08 18:00N 30°16' W 014°24'611.6
2017-Nov-08 17:30N 30°22' W 014°22'611.4
2017-Nov-08 17:00N 30°27' W 014°21'611.1
2017-Nov-08 16:30N 30°33' W 014°19'711.0
2017-Nov-08 15:55N 30°39' W 014°17'511.4
2017-Nov-08 15:30N 30°44' W 014°16'611.8
2017-Nov-08 14:58N 30°50' W 014°14'5211.8
2017-Nov-08 10:33N 31°40' W 014°00'111.8
2017-Nov-08 10:28N 31°41' W 013°60'31011.7
2017-Nov-07 08:00N 36°42' W 012°30'26612.7 050 / 211024.4 5.4 19.513.8
2017-Nov-06 11:00N 41°00' W 011°06'   1027.9 5.4 16.5 9.0

Dump ship's entire track history